sensor_id;sensor_type;location;lat;lon;timestamp;P1;durP1;ratioP1;P2;durP2;ratioP2
50161;SDS011;36061;48.116;11.612;2023-04-28T00:01:10;2.90;;;2.17;;
50161;SDS011;36061;48.116;11.612;2023-04-28T00:03:38;3.90;;;2.60;;
50161;SDS011;36061;48.116;11.612;2023-04-28T00:06:07;3.00;;;2.43;;
50161;SDS011;36061;48.116;11.612;2023-04-28T00:08:35;3.63;;;2.40;;
50161;SDS011;36061;48.116;11.612;2023-04-28T00:11:02;2.83;;;2.30;;
50161;SDS011;36061;48.116;11.612;2023-04-28T00:13:34;3.20;;;1.93;;
50161;SDS011;36061;48.116;11.612;2023-04-28T00:16:01;2.40;;;1.60;;
50161;SDS011;36061;48.116;11.612;2023-04-28T00:18:28;2.20;;;2.00;;
50161;SDS011;36061;48.116;11.612;2023-04-28T00:20:57;2.33;;;2.03;;
50161;SDS011;36061;48.116;11.612;2023-04-28T00:23:27;2.73;;;2.17;;
50161;SDS011;36061;48.116;11.612;2023-04-28T00:25:54;2.93;;;2.20;;
50161;SDS011;36061;48.116;11.612;2023-04-28T00:28:22;1.93;;;1.57;;
50161;SDS011;36061;48.116;11.612;2023-04-28T00:30:49;2.73;;;1.70;;
50161;SDS011;36061;48.116;11.612;2023-04-28T00:33:16;4.67;;;1.70;;
50161;SDS011;36061;48.116;11.612;2023-04-28T00:35:43;2.87;;;1.87;;
50161;SDS011;36061;48.116;11.612;2023-04-28T00:38:11;2.47;;;1.80;;
50161;SDS011;36061;48.116;11.612;2023-04-28T00:40:39;2.27;;;1.70;;
50161;SDS011;36061;48.116;11.612;2023-04-28T00:43:06;2.80;;;1.77;;
50161;SDS011;36061;48.116;11.612;2023-04-28T00:45:34;2.00;;;1.80;;
50161;SDS011;36061;48.116;11.612;2023-04-28T00:48:01;3.80;;;2.03;;
50161;SDS011;36061;48.116;11.612;2023-04-28T00:50:28;2.47;;;1.40;;
50161;SDS011;36061;48.116;11.612;2023-04-28T00:52:55;2.10;;;1.70;;
50161;SDS011;36061;48.116;11.612;2023-04-28T00:55:23;3.63;;;2.00;;
50161;SDS011;36061;48.116;11.612;2023-04-28T00:57:55;2.53;;;1.67;;
50161;SDS011;36061;48.116;11.612;2023-04-28T01:00:23;1.77;;;1.60;;
50161;SDS011;36061;48.116;11.612;2023-04-28T01:02:51;2.80;;;2.20;;
50161;SDS011;36061;48.116;11.612;2023-04-28T01:05:19;5.67;;;2.07;;
50161;SDS011;36061;48.116;11.612;2023-04-28T01:07:47;2.37;;;1.83;;
50161;SDS011;36061;48.116;11.612;2023-04-28T01:10:15;1.87;;;1.50;;
50161;SDS011;36061;48.116;11.612;2023-04-28T01:12:42;2.40;;;1.60;;
50161;SDS011;36061;48.116;11.612;2023-04-28T01:15:14;3.30;;;1.87;;
50161;SDS011;36061;48.116;11.612;2023-04-28T01:17:44;3.80;;;1.40;;
50161;SDS011;36061;48.116;11.612;2023-04-28T01:20:12;2.20;;;2.00;;
50161;SDS011;36061;48.116;11.612;2023-04-28T01:22:39;2.43;;;1.60;;
50161;SDS011;36061;48.116;11.612;2023-04-28T01:25:09;1.77;;;1.50;;
50161;SDS011;36061;48.116;11.612;2023-04-28T01:27:36;2.00;;;1.80;;
50161;SDS011;36061;48.116;11.612;2023-04-28T01:30:04;3.70;;;2.27;;
50161;SDS011;36061;48.116;11.612;2023-04-28T01:32:32;1.40;;;1.30;;
50161;SDS011;36061;48.116;11.612;2023-04-28T01:35:01;1.93;;;1.60;;
50161;SDS011;36061;48.116;11.612;2023-04-28T01:37:28;2.00;;;1.50;;
50161;SDS011;36061;48.116;11.612;2023-04-28T01:39:56;3.03;;;1.53;;
50161;SDS011;36061;48.116;11.612;2023-04-28T01:42:25;1.90;;;1.40;;
50161;SDS011;36061;48.116;11.612;2023-04-28T01:44:52;1.90;;;1.50;;
50161;SDS011;36061;48.116;11.612;2023-04-28T01:47:19;4.77;;;2.13;;
50161;SDS011;36061;48.116;11.612;2023-04-28T01:49:46;2.17;;;1.60;;
50161;SDS011;36061;48.116;11.612;2023-04-28T01:52:14;1.87;;;1.43;;
50161;SDS011;36061;48.116;11.612;2023-04-28T01:54:44;4.43;;;1.60;;
50161;SDS011;36061;48.116;11.612;2023-04-28T01:57:11;2.63;;;1.57;;
50161;SDS011;36061;48.116;11.612;2023-04-28T01:59:41;1.63;;;1.50;;
50161;SDS011;36061;48.116;11.612;2023-04-28T02:02:08;1.87;;;1.77;;
50161;SDS011;36061;48.116;11.612;2023-04-28T02:04:36;1.67;;;1.57;;
50161;SDS011;36061;48.116;11.612;2023-04-28T02:07:03;2.43;;;1.37;;
50161;SDS011;36061;48.116;11.612;2023-04-28T02:09:31;2.10;;;1.20;;
50161;SDS011;36061;48.116;11.612;2023-04-28T02:11:58;1.23;;;1.13;;
50161;SDS011;36061;48.116;11.612;2023-04-28T02:14:26;2.00;;;1.60;;
50161;SDS011;36061;48.116;11.612;2023-04-28T02:16:55;2.23;;;1.57;;
50161;SDS011;36061;48.116;11.612;2023-04-28T02:19:23;4.10;;;1.70;;
50161;SDS011;36061;48.116;11.612;2023-04-28T02:21:51;1.73;;;1.50;;
50161;SDS011;36061;48.116;11.612;2023-04-28T02:24:18;2.47;;;1.33;;
50161;SDS011;36061;48.116;11.612;2023-04-28T02:26:45;3.13;;;1.40;;
50161;SDS011;36061;48.116;11.612;2023-04-28T02:29:13;3.07;;;1.57;;
50161;SDS011;36061;48.116;11.612;2023-04-28T02:31:40;1.73;;;1.63;;
50161;SDS011;36061;48.116;11.612;2023-04-28T02:34:09;1.87;;;1.50;;
50161;SDS011;36061;48.116;11.612;2023-04-28T02:36:36;3.23;;;1.47;;
50161;SDS011;36061;48.116;11.612;2023-04-28T02:39:06;1.63;;;1.50;;
50161;SDS011;36061;48.116;11.612;2023-04-28T02:41:33;2.50;;;1.37;;
50161;SDS011;36061;48.116;11.612;2023-04-28T02:44:00;1.30;;;1.20;;
50161;SDS011;36061;48.116;11.612;2023-04-28T02:46:28;3.33;;;1.43;;
50161;SDS011;36061;48.116;11.612;2023-04-28T02:48:56;3.23;;;2.37;;
50161;SDS011;36061;48.116;11.612;2023-04-28T02:51:24;4.17;;;1.27;;
50161;SDS011;36061;48.116;11.612;2023-04-28T02:53:51;2.40;;;1.43;;
50161;SDS011;36061;48.116;11.612;2023-04-28T02:56:19;2.60;;;1.50;;
50161;SDS011;36061;48.116;11.612;2023-04-28T02:58:46;2.07;;;1.47;;
50161;SDS011;36061;48.116;11.612;2023-04-28T03:01:13;3.10;;;1.70;;
50161;SDS011;36061;48.116;11.612;2023-04-28T03:03:41;1.30;;;1.20;;
50161;SDS011;36061;48.116;11.612;2023-04-28T03:06:08;3.37;;;1.33;;
50161;SDS011;36061;48.116;11.612;2023-04-28T03:08:36;3.20;;;1.63;;
50161;SDS011;36061;48.116;11.612;2023-04-28T03:11:04;1.63;;;1.53;;
50161;SDS011;36061;48.116;11.612;2023-04-28T03:13:31;1.73;;;1.43;;
50161;SDS011;36061;48.116;11.612;2023-04-28T03:16:00;1.90;;;1.57;;
50161;SDS011;36061;48.116;11.612;2023-04-28T03:18:27;1.33;;;1.23;;
50161;SDS011;36061;48.116;11.612;2023-04-28T03:20:54;2.93;;;1.80;;
50161;SDS011;36061;48.116;11.612;2023-04-28T03:23:22;1.30;;;1.20;;
50161;SDS011;36061;48.116;11.612;2023-04-28T03:25:50;1.43;;;1.27;;
50161;SDS011;36061;48.116;11.612;2023-04-28T03:28:18;1.63;;;1.53;;
50161;SDS011;36061;48.116;11.612;2023-04-28T03:30:45;1.70;;;1.57;;
50161;SDS011;36061;48.116;11.612;2023-04-28T03:33:12;2.77;;;1.63;;
50161;SDS011;36061;48.116;11.612;2023-04-28T03:35:39;2.60;;;1.70;;
50161;SDS011;36061;48.116;11.612;2023-04-28T03:38:07;2.60;;;1.70;;
50161;SDS011;36061;48.116;11.612;2023-04-28T03:40:35;2.07;;;1.60;;
50161;SDS011;36061;48.116;11.612;2023-04-28T03:43:39;1.50;;;1.40;;
50161;SDS011;36061;48.116;11.612;2023-04-28T03:46:24;2.37;;;1.57;;
50161;SDS011;36061;48.116;11.612;2023-04-28T03:48:52;1.60;;;1.50;;
50161;SDS011;36061;48.116;11.612;2023-04-28T03:51:19;2.07;;;1.60;;
50161;SDS011;36061;48.116;11.612;2023-04-28T03:53:46;1.43;;;1.33;;
50161;SDS011;36061;48.116;11.612;2023-04-28T03:56:13;2.50;;;1.67;;
50161;SDS011;36061;48.116;11.612;2023-04-28T03:58:42;2.07;;;1.50;;
50161;SDS011;36061;48.116;11.612;2023-04-28T04:01:09;3.23;;;1.80;;
50161;SDS011;36061;48.116;11.612;2023-04-28T04:03:36;2.60;;;1.80;;
50161;SDS011;36061;48.116;11.612;2023-04-28T04:06:04;1.47;;;1.23;;
50161;SDS011;36061;48.116;11.612;2023-04-28T04:08:32;3.80;;;2.17;;
50161;SDS011;36061;48.116;11.612;2023-04-28T04:10:59;2.57;;;1.80;;
50161;SDS011;36061;48.116;11.612;2023-04-28T04:13:26;1.70;;;1.60;;
50161;SDS011;36061;48.116;11.612;2023-04-28T04:15:55;3.53;;;1.67;;
50161;SDS011;36061;48.116;11.612;2023-04-28T04:18:23;1.83;;;1.30;;
50161;SDS011;36061;48.116;11.612;2023-04-28T04:21:09;3.57;;;1.83;;
50161;SDS011;36061;48.116;11.612;2023-04-28T04:23:36;3.07;;;1.70;;
50161;SDS011;36061;48.116;11.612;2023-04-28T04:26:03;2.83;;;1.47;;
50161;SDS011;36061;48.116;11.612;2023-04-28T04:28:32;3.33;;;1.23;;
50161;SDS011;36061;48.116;11.612;2023-04-28T04:31:01;1.70;;;1.60;;
50161;SDS011;36061;48.116;11.612;2023-04-28T04:33:28;2.47;;;1.70;;
50161;SDS011;36061;48.116;11.612;2023-04-28T04:35:56;1.70;;;1.60;;
50161;SDS011;36061;48.116;11.612;2023-04-28T04:38:23;2.10;;;1.47;;
50161;SDS011;36061;48.116;11.612;2023-04-28T04:40:51;1.50;;;1.27;;
50161;SDS011;36061;48.116;11.612;2023-04-28T04:43:18;1.63;;;1.50;;
50161;SDS011;36061;48.116;11.612;2023-04-28T04:45:48;2.47;;;1.67;;
50161;SDS011;36061;48.116;11.612;2023-04-28T04:48:17;2.00;;;1.67;;
50161;SDS011;36061;48.116;11.612;2023-04-28T04:50:45;3.47;;;1.70;;
50161;SDS011;36061;48.116;11.612;2023-04-28T04:53:12;3.33;;;1.83;;
50161;SDS011;36061;48.116;11.612;2023-04-28T04:55:39;3.10;;;1.80;;
50161;SDS011;36061;48.116;11.612;2023-04-28T04:58:07;4.00;;;2.07;;
50161;SDS011;36061;48.116;11.612;2023-04-28T05:00:57;2.47;;;2.10;;
50161;SDS011;36061;48.116;11.612;2023-04-28T05:03:26;3.63;;;2.07;;
50161;SDS011;36061;48.116;11.612;2023-04-28T05:05:53;2.10;;;1.90;;
50161;SDS011;36061;48.116;11.612;2023-04-28T05:08:31;1.93;;;1.77;;
50161;SDS011;36061;48.116;11.612;2023-04-28T05:10:58;2.63;;;2.13;;
50161;SDS011;36061;48.116;11.612;2023-04-28T05:13:26;2.23;;;1.60;;
50161;SDS011;36061;48.116;11.612;2023-04-28T05:15:58;2.57;;;1.73;;
50161;SDS011;36061;48.116;11.612;2023-04-28T05:18:43;2.27;;;1.87;;
50161;SDS011;36061;48.116;11.612;2023-04-28T05:21:11;4.00;;;2.20;;
50161;SDS011;36061;48.116;11.612;2023-04-28T05:23:38;3.47;;;1.80;;
50161;SDS011;36061;48.116;11.612;2023-04-28T05:26:05;3.20;;;2.00;;
50161;SDS011;36061;48.116;11.612;2023-04-28T05:28:34;2.33;;;1.80;;
50161;SDS011;36061;48.116;11.612;2023-04-28T05:31:01;2.27;;;1.70;;
50161;SDS011;36061;48.116;11.612;2023-04-28T05:33:30;2.10;;;1.90;;
50161;SDS011;36061;48.116;11.612;2023-04-28T05:35:58;8.07;;;4.57;;
50161;SDS011;36061;48.116;11.612;2023-04-28T05:38:26;3.20;;;2.40;;
50161;SDS011;36061;48.116;11.612;2023-04-28T05:40:54;2.43;;;2.07;;
50161;SDS011;36061;48.116;11.612;2023-04-28T05:43:22;9.43;;;4.97;;
50161;SDS011;36061;48.116;11.612;2023-04-28T05:45:49;3.60;;;2.40;;
50161;SDS011;36061;48.116;11.612;2023-04-28T05:48:17;2.67;;;2.40;;
50161;SDS011;36061;48.116;11.612;2023-04-28T05:50:44;4.17;;;2.40;;
50161;SDS011;36061;48.116;11.612;2023-04-28T05:53:13;3.00;;;2.00;;
50161;SDS011;36061;48.116;11.612;2023-04-28T05:55:40;3.50;;;2.10;;
50161;SDS011;36061;48.116;11.612;2023-04-28T05:58:08;2.30;;;2.10;;
50161;SDS011;36061;48.116;11.612;2023-04-28T06:00:36;2.90;;;2.07;;
50161;SDS011;36061;48.116;11.612;2023-04-28T06:03:03;3.90;;;2.50;;
50161;SDS011;36061;48.116;11.612;2023-04-28T06:05:31;2.57;;;1.87;;
50161;SDS011;36061;48.116;11.612;2023-04-28T06:07:58;3.27;;;2.10;;
50161;SDS011;36061;48.116;11.612;2023-04-28T06:10:29;2.03;;;1.50;;
50161;SDS011;36061;48.116;11.612;2023-04-28T06:12:56;7.07;;;2.83;;
50161;SDS011;36061;48.116;11.612;2023-04-28T06:15:23;4.47;;;2.60;;
50161;SDS011;36061;48.116;11.612;2023-04-28T06:17:51;2.53;;;1.67;;
50161;SDS011;36061;48.116;11.612;2023-04-28T06:20:19;5.27;;;1.97;;
50161;SDS011;36061;48.116;11.612;2023-04-28T06:22:47;3.13;;;1.60;;
50161;SDS011;36061;48.116;11.612;2023-04-28T06:25:14;3.77;;;2.00;;
50161;SDS011;36061;48.116;11.612;2023-04-28T06:27:46;3.90;;;1.63;;
50161;SDS011;36061;48.116;11.612;2023-04-28T06:30:16;4.40;;;1.77;;
50161;SDS011;36061;48.116;11.612;2023-04-28T06:32:44;2.83;;;2.00;;
50161;SDS011;36061;48.116;11.612;2023-04-28T06:35:12;2.30;;;1.83;;
50161;SDS011;36061;48.116;11.612;2023-04-28T06:37:39;3.27;;;1.70;;
50161;SDS011;36061;48.116;11.612;2023-04-28T06:40:07;5.07;;;2.50;;
50161;SDS011;36061;48.116;11.612;2023-04-28T06:42:38;2.33;;;1.73;;
50161;SDS011;36061;48.116;11.612;2023-04-28T06:45:11;3.60;;;2.00;;
50161;SDS011;36061;48.116;11.612;2023-04-28T06:47:38;3.80;;;1.90;;
50161;SDS011;36061;48.116;11.612;2023-04-28T06:50:07;1.43;;;1.33;;
50161;SDS011;36061;48.116;11.612;2023-04-28T06:52:35;3.53;;;2.03;;
50161;SDS011;36061;48.116;11.612;2023-04-28T06:55:04;2.47;;;1.80;;
50161;SDS011;36061;48.116;11.612;2023-04-28T06:57:33;3.20;;;1.80;;
50161;SDS011;36061;48.116;11.612;2023-04-28T07:00:02;5.17;;;1.93;;
50161;SDS011;36061;48.116;11.612;2023-04-28T07:02:31;3.80;;;1.70;;
50161;SDS011;36061;48.116;11.612;2023-04-28T07:04:59;2.13;;;1.50;;
50161;SDS011;36061;48.116;11.612;2023-04-28T07:07:26;1.77;;;1.57;;
50161;SDS011;36061;48.116;11.612;2023-04-28T07:09:53;3.17;;;1.63;;
50161;SDS011;36061;48.116;11.612;2023-04-28T07:12:21;3.27;;;1.87;;
50161;SDS011;36061;48.116;11.612;2023-04-28T07:14:48;2.00;;;1.70;;
50161;SDS011;36061;48.116;11.612;2023-04-28T07:17:16;5.13;;;1.63;;
50161;SDS011;36061;48.116;11.612;2023-04-28T07:19:44;1.70;;;1.37;;
50161;SDS011;36061;48.116;11.612;2023-04-28T07:22:11;2.90;;;1.50;;
50161;SDS011;36061;48.116;11.612;2023-04-28T07:24:39;3.43;;;1.27;;
50161;SDS011;36061;48.116;11.612;2023-04-28T07:27:06;2.13;;;1.30;;
50161;SDS011;36061;48.116;11.612;2023-04-28T07:29:33;2.33;;;1.40;;
50161;SDS011;36061;48.116;11.612;2023-04-28T07:32:01;1.80;;;1.60;;
50161;SDS011;36061;48.116;11.612;2023-04-28T07:34:29;1.50;;;1.40;;
50161;SDS011;36061;48.116;11.612;2023-04-28T07:36:58;1.30;;;1.20;;
50161;SDS011;36061;48.116;11.612;2023-04-28T07:39:25;1.73;;;1.63;;
50161;SDS011;36061;48.116;11.612;2023-04-28T07:41:52;1.20;;;1.10;;
50161;SDS011;36061;48.116;11.612;2023-04-28T07:44:20;1.90;;;1.80;;
50161;SDS011;36061;48.116;11.612;2023-04-28T07:46:47;2.03;;;1.60;;
50161;SDS011;36061;48.116;11.612;2023-04-28T07:49:15;3.50;;;1.73;;
50161;SDS011;36061;48.116;11.612;2023-04-28T07:51:42;2.20;;;1.50;;
50161;SDS011;36061;48.116;11.612;2023-04-28T07:54:10;2.00;;;1.40;;
50161;SDS011;36061;48.116;11.612;2023-04-28T07:56:38;1.23;;;1.13;;
50161;SDS011;36061;48.116;11.612;2023-04-28T07:59:05;1.40;;;1.30;;
50161;SDS011;36061;48.116;11.612;2023-04-28T08:01:32;2.03;;;1.37;;
50161;SDS011;36061;48.116;11.612;2023-04-28T08:03:59;1.90;;;1.67;;
50161;SDS011;36061;48.116;11.612;2023-04-28T08:06:27;2.57;;;1.50;;
50161;SDS011;36061;48.116;11.612;2023-04-28T08:08:54;2.37;;;1.40;;
50161;SDS011;36061;48.116;11.612;2023-04-28T08:11:22;1.63;;;1.50;;
50161;SDS011;36061;48.116;11.612;2023-04-28T08:13:50;1.40;;;1.30;;
50161;SDS011;36061;48.116;11.612;2023-04-28T08:16:17;3.23;;;1.60;;
50161;SDS011;36061;48.116;11.612;2023-04-28T08:18:44;1.30;;;1.20;;
50161;SDS011;36061;48.116;11.612;2023-04-28T08:21:12;2.93;;;1.33;;
50161;SDS011;36061;48.116;11.612;2023-04-28T08:23:39;3.23;;;1.50;;
50161;SDS011;36061;48.116;11.612;2023-04-28T08:26:07;2.60;;;1.57;;
50161;SDS011;36061;48.116;11.612;2023-04-28T08:28:35;3.00;;;1.47;;
50161;SDS011;36061;48.116;11.612;2023-04-28T08:31:03;2.47;;;1.40;;
50161;SDS011;36061;48.116;11.612;2023-04-28T08:33:30;5.67;;;1.50;;
50161;SDS011;36061;48.116;11.612;2023-04-28T08:35:58;1.67;;;1.57;;
50161;SDS011;36061;48.116;11.612;2023-04-28T08:38:25;2.73;;;1.40;;
50161;SDS011;36061;48.116;11.612;2023-04-28T08:40:52;2.80;;;1.60;;
50161;SDS011;36061;48.116;11.612;2023-04-28T08:43:20;1.93;;;1.30;;
50161;SDS011;36061;48.116;11.612;2023-04-28T08:45:48;2.27;;;1.53;;
50161;SDS011;36061;48.116;11.612;2023-04-28T08:48:16;1.07;;;1.07;;
50161;SDS011;36061;48.116;11.612;2023-04-28T08:50:48;2.97;;;1.67;;
50161;SDS011;36061;48.116;11.612;2023-04-28T08:53:19;4.87;;;2.23;;
50161;SDS011;36061;48.116;11.612;2023-04-28T08:55:50;1.67;;;1.33;;
50161;SDS011;36061;48.116;11.612;2023-04-28T08:58:21;1.93;;;1.40;;
50161;SDS011;36061;48.116;11.612;2023-04-28T09:00:50;4.00;;;1.63;;
50161;SDS011;36061;48.116;11.612;2023-04-28T09:03:18;3.33;;;1.83;;
50161;SDS011;36061;48.116;11.612;2023-04-28T09:05:46;3.77;;;1.90;;
50161;SDS011;36061;48.116;11.612;2023-04-28T09:08:13;4.93;;;2.03;;
50161;SDS011;36061;48.116;11.612;2023-04-28T09:10:40;4.27;;;2.57;;
50161;SDS011;36061;48.116;11.612;2023-04-28T09:13:07;2.87;;;1.63;;
50161;SDS011;36061;48.116;11.612;2023-04-28T09:15:35;3.63;;;1.70;;
50161;SDS011;36061;48.116;11.612;2023-04-28T09:18:06;1.97;;;1.50;;
50161;SDS011;36061;48.116;11.612;2023-04-28T09:20:34;3.50;;;1.77;;
50161;SDS011;36061;48.116;11.612;2023-04-28T09:23:12;3.60;;;1.53;;
50161;SDS011;36061;48.116;11.612;2023-04-28T09:25:54;2.47;;;1.50;;
50161;SDS011;36061;48.116;11.612;2023-04-28T09:28:22;1.40;;;1.30;;
50161;SDS011;36061;48.116;11.612;2023-04-28T09:30:49;3.80;;;1.40;;
50161;SDS011;36061;48.116;11.612;2023-04-28T09:33:18;2.33;;;1.00;;
50161;SDS011;36061;48.116;11.612;2023-04-28T09:35:46;1.20;;;1.10;;
50161;SDS011;36061;48.116;11.612;2023-04-28T09:38:13;3.03;;;1.20;;
50161;SDS011;36061;48.116;11.612;2023-04-28T09:40:56;3.17;;;1.77;;
50161;SDS011;36061;48.116;11.612;2023-04-28T09:43:28;5.43;;;1.73;;
50161;SDS011;36061;48.116;11.612;2023-04-28T09:45:57;2.57;;;1.63;;
50161;SDS011;36061;48.116;11.612;2023-04-28T09:48:27;3.23;;;1.43;;
50161;SDS011;36061;48.116;11.612;2023-04-28T09:50:56;2.17;;;1.63;;
50161;SDS011;36061;48.116;11.612;2023-04-28T09:53:23;2.80;;;1.67;;
50161;SDS011;36061;48.116;11.612;2023-04-28T09:55:51;1.97;;;1.70;;
50161;SDS011;36061;48.116;11.612;2023-04-28T09:58:20;2.87;;;1.40;;
50161;SDS011;36061;48.116;11.612;2023-04-28T10:00:50;1.97;;;1.63;;
50161;SDS011;36061;48.116;11.612;2023-04-28T10:03:20;1.40;;;1.30;;
50161;SDS011;36061;48.116;11.612;2023-04-28T10:05:51;4.17;;;1.57;;
50161;SDS011;36061;48.116;11.612;2023-04-28T10:08:19;3.13;;;1.37;;
50161;SDS011;36061;48.116;11.612;2023-04-28T10:10:47;1.53;;;1.43;;
50161;SDS011;36061;48.116;11.612;2023-04-28T10:13:15;3.87;;;1.23;;
50161;SDS011;36061;48.116;11.612;2023-04-28T10:15:43;2.23;;;1.40;;
50161;SDS011;36061;48.116;11.612;2023-04-28T10:18:11;4.30;;;1.40;;
50161;SDS011;36061;48.116;11.612;2023-04-28T10:20:40;1.53;;;1.10;;
50161;SDS011;36061;48.116;11.612;2023-04-28T10:23:19;2.00;;;1.33;;
50161;SDS011;36061;48.116;11.612;2023-04-28T10:26:08;4.10;;;1.63;;
50161;SDS011;36061;48.116;11.612;2023-04-28T10:28:43;4.83;;;1.30;;
50161;SDS011;36061;48.116;11.612;2023-04-28T10:31:12;3.43;;;1.30;;
50161;SDS011;36061;48.116;11.612;2023-04-28T10:33:41;2.37;;;1.50;;
50161;SDS011;36061;48.116;11.612;2023-04-28T10:36:08;0.87;;;0.83;;
50161;SDS011;36061;48.116;11.612;2023-04-28T10:41:35;4.40;;;1.00;;
50161;SDS011;36061;48.116;11.612;2023-04-28T10:47:03;1.33;;;1.03;;
50161;SDS011;36061;48.116;11.612;2023-04-28T10:52:47;1.53;;;1.13;;
50161;SDS011;36061;48.116;11.612;2023-04-28T10:55:32;2.27;;;0.97;;
50161;SDS011;36061;48.116;11.612;2023-04-28T11:03:52;0.80;;;0.80;;
50161;SDS011;36061;48.116;11.612;2023-04-28T11:06:25;0.93;;;0.80;;
50161;SDS011;36061;48.116;11.612;2023-04-28T11:08:54;2.00;;;1.00;;
50161;SDS011;36061;48.116;11.612;2023-04-28T11:11:24;1.10;;;1.00;;
50161;SDS011;36061;48.116;11.612;2023-04-28T11:13:52;3.00;;;1.20;;
50161;SDS011;36061;48.116;11.612;2023-04-28T11:16:21;2.53;;;0.93;;
50161;SDS011;36061;48.116;11.612;2023-04-28T11:18:53;1.50;;;1.10;;
50161;SDS011;36061;48.116;11.612;2023-04-28T11:21:23;1.87;;;0.90;;
50161;SDS011;36061;48.116;11.612;2023-04-28T11:23:52;3.07;;;0.90;;
50161;SDS011;36061;48.116;11.612;2023-04-28T11:26:20;2.57;;;1.30;;
50161;SDS011;36061;48.116;11.612;2023-04-28T11:28:51;2.57;;;0.90;;
50161;SDS011;36061;48.116;11.612;2023-04-28T11:31:19;4.67;;;1.47;;
50161;SDS011;36061;48.116;11.612;2023-04-28T11:33:50;2.87;;;1.20;;
50161;SDS011;36061;48.116;11.612;2023-04-28T11:36:21;3.33;;;1.17;;
50161;SDS011;36061;48.116;11.612;2023-04-28T11:38:53;2.33;;;1.53;;
50161;SDS011;36061;48.116;11.612;2023-04-28T11:41:21;2.03;;;1.20;;
50161;SDS011;36061;48.116;11.612;2023-04-28T11:43:51;1.17;;;1.07;;
50161;SDS011;36061;48.116;11.612;2023-04-28T11:46:19;2.70;;;1.10;;
50161;SDS011;36061;48.116;11.612;2023-04-28T11:48:47;2.03;;;0.93;;
50161;SDS011;36061;48.116;11.612;2023-04-28T11:51:28;2.13;;;1.03;;
50161;SDS011;36061;48.116;11.612;2023-04-28T11:53:57;5.23;;;0.93;;
50161;SDS011;36061;48.116;11.612;2023-04-28T11:56:25;0.90;;;0.80;;
50161;SDS011;36061;48.116;11.612;2023-04-28T11:59:00;4.13;;;1.20;;
50161;SDS011;36061;48.116;11.612;2023-04-28T12:01:30;1.40;;;0.90;;
50161;SDS011;36061;48.116;11.612;2023-04-28T12:03:58;2.37;;;1.50;;
50161;SDS011;36061;48.116;11.612;2023-04-28T12:06:26;2.53;;;1.40;;
50161;SDS011;36061;48.116;11.612;2023-04-28T12:08:54;3.40;;;1.63;;
50161;SDS011;36061;48.116;11.612;2023-04-28T12:11:22;3.70;;;1.30;;
50161;SDS011;36061;48.116;11.612;2023-04-28T12:14:03;2.33;;;1.50;;
50161;SDS011;36061;48.116;11.612;2023-04-28T12:16:41;1.90;;;1.17;;
50161;SDS011;36061;48.116;11.612;2023-04-28T12:19:09;3.70;;;1.43;;
50161;SDS011;36061;48.116;11.612;2023-04-28T12:21:39;2.40;;;1.00;;
50161;SDS011;36061;48.116;11.612;2023-04-28T12:24:14;2.57;;;1.10;;
50161;SDS011;36061;48.116;11.612;2023-04-28T12:26:42;2.27;;;1.40;;
50161;SDS011;36061;48.116;11.612;2023-04-28T12:32:04;3.63;;;1.57;;
50161;SDS011;36061;48.116;11.612;2023-04-28T12:34:32;1.07;;;0.87;;
50161;SDS011;36061;48.116;11.612;2023-04-28T12:37:00;4.37;;;1.20;;
50161;SDS011;36061;48.116;11.612;2023-04-28T12:39:30;1.47;;;1.00;;
50161;SDS011;36061;48.116;11.612;2023-04-28T12:41:58;2.47;;;1.03;;
50161;SDS011;36061;48.116;11.612;2023-04-28T12:44:27;3.53;;;0.90;;
50161;SDS011;36061;48.116;11.612;2023-04-28T12:47:01;1.17;;;0.97;;
50161;SDS011;36061;48.116;11.612;2023-04-28T12:49:29;1.07;;;0.90;;
50161;SDS011;36061;48.116;11.612;2023-04-28T12:51:57;4.33;;;1.13;;
50161;SDS011;36061;48.116;11.612;2023-04-28T12:54:24;0.80;;;0.80;;
50161;SDS011;36061;48.116;11.612;2023-04-28T12:56:51;1.70;;;1.13;;
50161;SDS011;36061;48.116;11.612;2023-04-28T12:59:19;1.50;;;1.00;;
50161;SDS011;36061;48.116;11.612;2023-04-28T13:01:47;1.50;;;0.83;;
50161;SDS011;36061;48.116;11.612;2023-04-28T13:04:16;2.77;;;1.10;;
50161;SDS011;36061;48.116;11.612;2023-04-28T13:06:43;1.83;;;0.70;;
50161;SDS011;36061;48.116;11.612;2023-04-28T13:09:10;3.07;;;1.03;;
50161;SDS011;36061;48.116;11.612;2023-04-28T13:11:39;1.67;;;0.97;;
50161;SDS011;36061;48.116;11.612;2023-04-28T13:14:06;0.90;;;0.80;;
50161;SDS011;36061;48.116;11.612;2023-04-28T13:16:34;0.77;;;0.60;;
50161;SDS011;36061;48.116;11.612;2023-04-28T13:19:02;1.20;;;0.90;;
50161;SDS011;36061;48.116;11.612;2023-04-28T13:21:35;0.80;;;0.80;;
50161;SDS011;36061;48.116;11.612;2023-04-28T13:24:03;2.23;;;1.10;;
50161;SDS011;36061;48.116;11.612;2023-04-28T13:26:31;2.47;;;1.03;;
50161;SDS011;36061;48.116;11.612;2023-04-28T13:28:58;0.70;;;0.70;;
50161;SDS011;36061;48.116;11.612;2023-04-28T13:31:26;1.90;;;0.90;;
50161;SDS011;36061;48.116;11.612;2023-04-28T13:33:54;1.80;;;1.07;;
50161;SDS011;36061;48.116;11.612;2023-04-28T13:36:21;0.80;;;0.63;;
50161;SDS011;36061;48.116;11.612;2023-04-28T13:38:50;2.10;;;0.80;;
50161;SDS011;36061;48.116;11.612;2023-04-28T13:41:17;1.03;;;0.80;;
50161;SDS011;36061;48.116;11.612;2023-04-28T13:43:45;1.13;;;0.60;;
50161;SDS011;36061;48.116;11.612;2023-04-28T13:46:13;2.00;;;0.83;;
50161;SDS011;36061;48.116;11.612;2023-04-28T13:48:40;0.90;;;0.80;;
50161;SDS011;36061;48.116;11.612;2023-04-28T13:51:07;0.57;;;0.57;;
50161;SDS011;36061;48.116;11.612;2023-04-28T13:53:35;2.47;;;0.60;;
50161;SDS011;36061;48.116;11.612;2023-04-28T13:56:04;0.60;;;0.60;;
50161;SDS011;36061;48.116;11.612;2023-04-28T13:58:32;0.93;;;0.80;;
50161;SDS011;36061;48.116;11.612;2023-04-28T14:01:00;2.10;;;0.70;;
50161;SDS011;36061;48.116;11.612;2023-04-28T14:03:30;1.90;;;0.70;;
50161;SDS011;36061;48.116;11.612;2023-04-28T14:05:58;0.60;;;0.60;;
50161;SDS011;36061;48.116;11.612;2023-04-28T14:08:25;0.60;;;0.50;;
50161;SDS011;36061;48.116;11.612;2023-04-28T14:10:53;1.60;;;0.80;;
50161;SDS011;36061;48.116;11.612;2023-04-28T14:13:22;0.50;;;0.50;;
50161;SDS011;36061;48.116;11.612;2023-04-28T14:15:50;0.87;;;0.60;;
50161;SDS011;36061;48.116;11.612;2023-04-28T14:18:18;0.70;;;0.50;;
50161;SDS011;36061;48.116;11.612;2023-04-28T14:20:45;1.70;;;0.70;;
50161;SDS011;36061;48.116;11.612;2023-04-28T14:23:13;1.03;;;0.60;;
50161;SDS011;36061;48.116;11.612;2023-04-28T14:25:40;0.53;;;0.53;;
50161;SDS011;36061;48.116;11.612;2023-04-28T14:28:08;0.63;;;0.63;;
50161;SDS011;36061;48.116;11.612;2023-04-28T14:30:37;0.60;;;0.60;;
50161;SDS011;36061;48.116;11.612;2023-04-28T14:33:04;0.70;;;0.70;;
50161;SDS011;36061;48.116;11.612;2023-04-28T14:35:32;0.60;;;0.60;;
50161;SDS011;36061;48.116;11.612;2023-04-28T14:38:01;0.80;;;0.80;;
50161;SDS011;36061;48.116;11.612;2023-04-28T14:40:29;0.53;;;0.53;;
50161;SDS011;36061;48.116;11.612;2023-04-28T14:42:56;0.93;;;0.70;;
50161;SDS011;36061;48.116;11.612;2023-04-28T14:45:23;1.20;;;0.50;;
50161;SDS011;36061;48.116;11.612;2023-04-28T14:47:52;0.73;;;0.50;;
50161;SDS011;36061;48.116;11.612;2023-04-28T14:50:19;1.60;;;0.70;;
50161;SDS011;36061;48.116;11.612;2023-04-28T14:52:46;0.63;;;0.60;;
50161;SDS011;36061;48.116;11.612;2023-04-28T14:55:14;1.07;;;0.90;;
50161;SDS011;36061;48.116;11.612;2023-04-28T14:57:41;1.80;;;1.07;;
50161;SDS011;36061;48.116;11.612;2023-04-28T15:00:08;1.40;;;1.30;;